Circle Line Queens — WDE8154 — position and weather

sailwx.info

Track history (hours):
 
Tides and Currents Weather Stations Pressure Air Temp Water Temp Dewpoint Dewpoint Depression Visibility Wind Speed Wind Dir Waves Ship Positions

Circle Line Queens

Owner: Circle Line Sight Seeing Yachts Inc., New York, NY. More information available from US FCC via Universal Licensing System and Coast Guard Vessel Documentation Center.

Last reported at 2018-Aug-14 18:24 UTC. Time now 2018-Aug-14 23:43 UTC.
Position N 40°43' W 073°58'.

Length 47 m; draft 2.1 m.

Type: Passenger vessel. MMSI: 367402210.

Date/timePositionNaut miles runAvg speedWind from/ knotsBaromVisibWave heightAir tempDewpointWater temp
2018-Aug-14 18:24N 40°43' W 073°58'3 8.5
2018-Aug-14 18:00N 40°41' W 074°02'2 1.1
2018-Aug-14 15:57N 40°44' W 074°01'2 2.1
2018-Aug-14 14:53N 40°43' W 073°58'3 6.9
2018-Aug-14 14:30N 40°42' W 074°02'1 0.1
2018-Aug-13 20:35N 40°43' W 074°01'110.3
2018-Aug-13 20:30N 40°42' W 074°01'1 2.1
2018-Aug-13 20:01N 40°41' W 074°02'2 1.0
2018-Aug-13 17:50N 40°44' W 074°01'2 1.5
2018-Aug-13 16:39N 40°42' W 074°01'1 5.4
2018-Aug-13 16:27N 40°42' W 074°02'3 0.2
2018-Aug-13 00:42N 40°44' W 074°01'212.2
2018-Aug-13 00:30N 40°42' W 074°02'2 2.6
2018-Aug-12 23:37N 40°42' W 073°59'113.8
2018-Aug-12 23:30N 40°42' W 074°01'1 0.4
2018-Aug-12 20:40N 40°43' W 074°01'2 3.0
2018-Aug-12 20:09N 40°42' W 074°01'211.1
2018-Aug-12 20:00N 40°41' W 074°03'2 0.5
2018-Aug-12 16:44N 40°42' W 074°01'1 6.2
2018-Aug-12 16:30N 40°41' W 074°02'2 0.1
2018-Aug-12 00:32N 40°43' W 074°02'014.4
2018-Aug-12 00:30N 40°43' W 074°02'3 5.1
2018-Aug-12 00:01N 40°43' W 073°58'2 3.3
2018-Aug-11 23:28N 40°42' W 074°00'2 0.7
2018-Aug-11 21:15N 40°43' W 074°01'2 8.3
2018-Aug-11 21:00N 40°41' W 074°02'2 1.1
2018-Aug-11 19:14N 40°43' W 074°01'2 7.3
2018-Aug-11 18:58N 40°41' W 074°02'3 0.2
2018-Aug-11 03:35N 40°44' W 074°01'1 7.1
2018-Aug-11 03:30N 40°43' W 074°01'2 3.6
2018-Aug-11 03:00N 40°42' W 074°02'4 7.2
2018-Aug-11 02:30N 40°45' W 074°01'2 0.3
2018-Aug-10 20:44N 40°44' W 074°01'2 6.9
2018-Aug-10 20:29N 40°42' W 073°59'2 4.9
2018-Aug-10 19:59N 40°42' W 074°02'5 1.9
2018-Aug-10 17:07N 40°45' W 073°57'311.5
2018-Aug-10 16:54N 40°43' W 073°58'3 8.7
2018-Aug-10 16:30N 40°41' W 074°02'2 0.2
2018-Aug-10 00:41N 40°44' W 074°01'214.0
2018-Aug-10 00:31N 40°41' W 074°02'5 8.5
2018-Aug-09 23:58N 40°45' W 073°58'3 7.7
2018-Aug-09 23:30N 40°42' W 074°01'1 0.5
2018-Aug-09 20:48N 40°44' W 074°01'2 7.2
2018-Aug-09 20:29N 40°43' W 073°59'3 6.2
2018-Aug-09 20:00N 40°42' W 074°02'3 1.0
2018-Aug-09 16:49N 40°43' W 073°59'310.9
2018-Aug-09 16:30N 40°41' W 074°03'2 0.1
2018-Aug-08 20:42N 40°43' W 074°01'2 7.7
2018-Aug-08 20:30N 40°42' W 073°60'2 4.7
2018-Aug-08 20:00N 40°41' W 074°02'2 0.7
2018-Aug-08 16:43N 40°42' W 073°60'212.1
2018-Aug-08 16:30N 40°41' W 074°03'3 0.2
2018-Aug-07 18:18N 40°43' W 073°58'310.6
2018-Aug-07 17:59N 40°41' W 074°03'3 1.0
2018-Aug-07 14:53N 40°42' W 073°59'3 7.6
2018-Aug-07 14:29N 40°42' W 074°02'2 0.1
2018-Aug-07 00:38N 40°43' W 074°02'110.5
2018-Aug-07 00:30N 40°42' W 074°02'1 1.0
2018-Aug-06 23:30N 40°42' W 074°01'1 0.5
2018-Aug-06 20:45N 40°43' W 074°01'1 2.5
2018-Aug-06 20:14N 40°42' W 074°01'1 4.0
2018-Aug-06 20:00N 40°42' W 074°02'1 0.3
2018-Aug-06 16:44N 40°42' W 074°01'1 3.0
2018-Aug-06 16:29N 40°42' W 074°02'2 0.1
2018-Aug-05 20:45N 40°44' W 074°01'2 3.4
2018-Aug-05 20:11N 40°42' W 074°01'1 7.5
2018-Aug-05 20:00N 40°41' W 074°02'5 2.8
2018-Aug-05 18:19N 40°46' W 074°00'711.9
2018-Aug-05 17:46N 40°52' W 073°57'7 7.8
2018-Aug-05 16:55N 40°45' W 073°57'614.2
2018-Aug-05 16:30N 40°41' W 074°03'4 0.3
2018-Aug-05 00:50N 40°45' W 074°01'411.6
2018-Aug-05 00:30N 40°41' W 074°02'4 7.3
2018-Aug-05 00:00N 40°43' W 073°58'2 3.1
2018-Aug-04 23:30N 40°42' W 073°60'4 1.0
2018-Aug-04 19:55N 40°46' W 074°00'2 3.0
2018-Aug-04 19:22N 40°44' W 074°01'3 7.2
2018-Aug-04 19:00N 40°43' W 073°58'  
Track history (hours):
 
Tides and Currents Weather Stations Pressure Air Temp Water Temp Dewpoint Dewpoint Depression Visibility Wind Speed Wind Dir Waves Ship Positions

Circle Line Queens

Owner: Circle Line Sight Seeing Yachts Inc., New York, NY. More information available from US FCC via Universal Licensing System and Coast Guard Vessel Documentation Center.

Last reported at 2018-Aug-14 18:24 UTC. Time now 2018-Aug-14 23:43 UTC.
Position N 40°43' W 073°58'.

Length 47 m; draft 2.1 m.

Type: Passenger vessel. MMSI: 367402210.

Date/timePositionNaut miles runAvg speedWind from/ knotsBaromVisibWave heightAir tempDewpointWater temp
2018-Aug-14 18:24N 40°43' W 073°58'3 8.5
2018-Aug-14 18:00N 40°41' W 074°02'2 1.1
2018-Aug-14 15:57N 40°44' W 074°01'2 2.1
2018-Aug-14 14:53N 40°43' W 073°58'3 6.9
2018-Aug-14 14:30N 40°42' W 074°02'1 0.1
2018-Aug-13 20:35N 40°43' W 074°01'110.3
2018-Aug-13 20:30N 40°42' W 074°01'1 2.1
2018-Aug-13 20:01N 40°41' W 074°02'2 1.0
2018-Aug-13 17:50N 40°44' W 074°01'2 1.5
2018-Aug-13 16:39N 40°42' W 074°01'1 5.4
2018-Aug-13 16:27N 40°42' W 074°02'3 0.2
2018-Aug-13 00:42N 40°44' W 074°01'212.2
2018-Aug-13 00:30N 40°42' W 074°02'2 2.6
2018-Aug-12 23:37N 40°42' W 073°59'113.8
2018-Aug-12 23:30N 40°42' W 074°01'1 0.4
2018-Aug-12 20:40N 40°43' W 074°01'2 3.0
2018-Aug-12 20:09N 40°42' W 074°01'211.1
2018-Aug-12 20:00N 40°41' W 074°03'2 0.5
2018-Aug-12 16:44N 40°42' W 074°01'1 6.2
2018-Aug-12 16:30N 40°41' W 074°02'2 0.1
2018-Aug-12 00:32N 40°43' W 074°02'014.4
2018-Aug-12 00:30N 40°43' W 074°02'3 5.1
2018-Aug-12 00:01N 40°43' W 073°58'2 3.3
2018-Aug-11 23:28N 40°42' W 074°00'2 0.7
2018-Aug-11 21:15N 40°43' W 074°01'2 8.3
2018-Aug-11 21:00N 40°41' W 074°02'2 1.1
2018-Aug-11 19:14N 40°43' W 074°01'2 7.3
2018-Aug-11 18:58N 40°41' W 074°02'3 0.2
2018-Aug-11 03:35N 40°44' W 074°01'1 7.1
2018-Aug-11 03:30N 40°43' W 074°01'2 3.6
2018-Aug-11 03:00N 40°42' W 074°02'4 7.2
2018-Aug-11 02:30N 40°45' W 074°01'2 0.3
2018-Aug-10 20:44N 40°44' W 074°01'2 6.9
2018-Aug-10 20:29N 40°42' W 073°59'2 4.9
2018-Aug-10 19:59N 40°42' W 074°02'5 1.9
2018-Aug-10 17:07N 40°45' W 073°57'311.5
2018-Aug-10 16:54N 40°43' W 073°58'3 8.7
2018-Aug-10 16:30N 40°41' W 074°02'2 0.2
2018-Aug-10 00:41N 40°44' W 074°01'214.0
2018-Aug-10 00:31N 40°41' W 074°02'5 8.5
2018-Aug-09 23:58N 40°45' W 073°58'3 7.7
2018-Aug-09 23:30N 40°42' W 074°01'1 0.5
2018-Aug-09 20:48N 40°44' W 074°01'2 7.2
2018-Aug-09 20:29N 40°43' W 073°59'3 6.2
2018-Aug-09 20:00N 40°42' W 074°02'3 1.0
2018-Aug-09 16:49N 40°43' W 073°59'310.9
2018-Aug-09 16:30N 40°41' W 074°03'2 0.1
2018-Aug-08 20:42N 40°43' W 074°01'2 7.7
2018-Aug-08 20:30N 40°42' W 073°60'2 4.7
2018-Aug-08 20:00N 40°41' W 074°02'2 0.7
2018-Aug-08 16:43N 40°42' W 073°60'212.1
2018-Aug-08 16:30N 40°41' W 074°03'3 0.2
2018-Aug-07 18:18N 40°43' W 073°58'310.6
2018-Aug-07 17:59N 40°41' W 074°03'3 1.0
2018-Aug-07 14:53N 40°42' W 073°59'3 7.6
2018-Aug-07 14:29N 40°42' W 074°02'2 0.1
2018-Aug-07 00:38N 40°43' W 074°02'110.5
2018-Aug-07 00:30N 40°42' W 074°02'1 1.0
2018-Aug-06 23:30N 40°42' W 074°01'1 0.5
2018-Aug-06 20:45N 40°43' W 074°01'1 2.5
2018-Aug-06 20:14N 40°42' W 074°01'1 4.0
2018-Aug-06 20:00N 40°42' W 074°02'1 0.3
2018-Aug-06 16:44N 40°42' W 074°01'1 3.0
2018-Aug-06 16:29N 40°42' W 074°02'2 0.1
2018-Aug-05 20:45N 40°44' W 074°01'2 3.4
2018-Aug-05 20:11N 40°42' W 074°01'1 7.5
2018-Aug-05 20:00N 40°41' W 074°02'5 2.8
2018-Aug-05 18:19N 40°46' W 074°00'711.9
2018-Aug-05 17:46N 40°52' W 073°57'7 7.8
2018-Aug-05 16:55N 40°45' W 073°57'614.2
2018-Aug-05 16:30N 40°41' W 074°03'4 0.3
2018-Aug-05 00:50N 40°45' W 074°01'411.6
2018-Aug-05 00:30N 40°41' W 074°02'4 7.3
2018-Aug-05 00:00N 40°43' W 073°58'2 3.1
2018-Aug-04 23:30N 40°42' W 073°60'4 1.0
2018-Aug-04 19:55N 40°46' W 074°00'2 3.0
2018-Aug-04 19:22N 40°44' W 074°01'3 7.2
2018-Aug-04 19:00N 40°43' W 073°58'  

Dump ship's entire track history